Time,TemperatureF,DewpointF,PressureIn,WindDirection,WindDirectionDegrees,WindSpeedMPH,WindSpeedGustMPH,Humidity,HourlyPrecipIn,Conditions,Clouds,dailyrainin,SolarRadiationWatts/m^2,SoftwareType,DateUTC
2013-08-14 00:02:00,82.0,78.8,29.93,ESE,105,10.4,10.4,90,0.00,CLR,SKC,0.00,0.0,WeatherDisplay:10.37,2013-08-14 05:02:00,
2013-08-14 00:07:00,82.1,79.2,29.93,SSW,202,7.0,7.0,91,0.00,CLR,SKC,0.00,0.0,WeatherDisplay:10.37,2013-08-14 05:07:00,
2013-08-14 00:12:00,82.1,79.2,29.93,SSE,152,4.6,4.6,91,0.00,CLR,SKC,0.00,0.0,WeatherDisplay:10.37,2013-08-14 05:12:00,
2013-08-14 00:17:00,82.1,78.9,29.93,SSE,161,6.9,6.9,90,0.00,CLR,SKC,0.00,0.0,WeatherDisplay:10.37,2013-08-14 05:17:00,
2013-08-14 00:22:00,82.0,78.8,29.93,SSE,159,6.0,6.0,90,0.00,CLR,SKC,0.00,0.0,WeatherDisplay:10.37,2013-08-14 05:22:00,
2013-08-14 00:27:00,82.0,78.8,29.93,SE,144,5.0,5.0,90,0.00,CLR,SKC,0.00,0.0,WeatherDisplay:10.37,2013-08-14 05:27:00,
2013-08-14 00:32:00,82.0,78.8,29.93,ESE,119,9.2,9.2,90,0.00,CLR,SKC,0.00,0.0,WeatherDisplay:10.37,2013-08-14 05:32:00,
2013-08-14 00:37:00,82.0,78.8,29.93,SSE,155,9.2,9.2,90,0.00,CLR,SKC,0.00,0.0,WeatherDisplay:10.37,2013-08-14 05:37:00,
2013-08-14 00:42:00,82.0,78.8,29.93,SSE,162,10.4,10.4,90,0.00,CLR,SKC,0.00,0.0,WeatherDisplay:10.37,2013-08-14 05:42:00,
2013-08-14 00:47:00,82.0,78.8,29.93,East,94,4.6,4.6,90,0.00,CLR,SKC,0.00,0.0,WeatherDisplay:10.37,2013-08-14 05:47:00,
2013-08-14 00:52:00,82.0,78.8,29.93,SSE,148,4.6,4.6,90,0.00,CLR,SKC,0.00,0.0,WeatherDisplay:10.37,2013-08-14 05:52:00,
2013-08-14 00:57:00,81.9,78.7,29.92,South,173,10.4,10.4,90,0.00,CLR,SKC,0.00,0.0,WeatherDisplay:10.37,2013-08-14 05:57:00,
2013-08-14 01:02:00,81.9,78.7,29.92,SSE,151,11.5,11.5,90,0.00,CLR,SKC,0.00,0.0,WeatherDisplay:10.37,2013-08-14 06:02:00,
2013-08-14 01:07:00,81.9,78.7,29.92,South,169,9.2,9.2,90,0.00,CLR,SKC,0.00,0.0,WeatherDisplay:10.37,2013-08-14 06:07:00,
2013-08-14 01:12:00,81.8,78.6,29.93,SSE,150,4.6,4.6,90,0.00,CLR,SKC,0.00,0.0,WeatherDisplay:10.37,2013-08-14 06:12:00,
2013-08-14 01:17:00,81.8,78.6,29.93,SE,146,8.1,8.1,90,0.00,CLR,SKC,0.00,0.0,WeatherDisplay:10.37,2013-08-14 06:17:00,
2013-08-14 01:22:00,81.7,78.5,29.93,SSW,200,4.6,4.6,90,0.00,CLR,SKC,0.00,0.0,WeatherDisplay:10.37,2013-08-14 06:22:00,
2013-08-14 01:27:00,81.7,78.5,29.92,SE,136,2.3,2.3,90,0.00,CLR,SKC,0.00,0.0,WeatherDisplay:10.37,2013-08-14 06:27:00,
2013-08-14 01:32:00,81.7,78.5,29.92,SSE,147,3.5,3.5,90,0.00,CLR,SKC,0.00,0.0,WeatherDisplay:10.37,2013-08-14 06:32:00,
2013-08-14 01:37:00,81.6,78.4,29.92,SSE,167,6.9,6.9,90,0.00,CLR,SKC,0.00,0.0,WeatherDisplay:10.37,2013-08-14 06:37:00,
2013-08-14 01:42:00,81.6,78.4,29.91,SW,220,3.5,3.5,90,0.00,CLR,SKC,0.00,0.0,WeatherDisplay:10.37,2013-08-14 06:42:00,
2013-08-14 01:47:00,81.6,78.4,29.91,South,177,3.5,3.5,90,0.00,CLR,SKC,0.00,0.0,WeatherDisplay:10.37,2013-08-14 06:47:00,
2013-08-14 01:52:00,81.6,78.4,29.91,WSW,238,6.9,6.9,90,0.00,CLR,SKC,0.00,0.0,WeatherDisplay:10.37,2013-08-14 06:52:00,
2013-08-14 01:57:00,81.6,78.7,29.91,SSE,165,4.6,4.6,91,0.00,CLR,SKC,0.00,0.0,WeatherDisplay:10.37,2013-08-14 06:57:00,
2013-08-14 02:02:00,81.5,78.3,29.91,SSE,166,6.9,6.9,90,0.00,CLR,SKC,0.00,0.0,WeatherDisplay:10.37,2013-08-14 07:02:00,
2013-08-14 02:07:00,81.4,78.5,29.91,South,176,6.9,6.9,91,0.00,CLR,SKC,0.00,0.0,WeatherDisplay:10.37,2013-08-14 07:07:00,
2013-08-14 02:12:00,81.4,78.5,29.91,SSE,157,10.4,10.4,91,0.00,CLR,SKC,0.00,0.0,WeatherDisplay:10.37,2013-08-14 07:12:00,
2013-08-14 02:17:00,81.4,78.5,29.91,ESE,117,5.8,5.8,91,0.00,CLR,SKC,0.00,0.0,WeatherDisplay:10.37,2013-08-14 07:17:00,
2013-08-14 02:22:00,81.3,78.4,29.91,SSE,168,4.0,4.0,91,0.00,CLR,SKC,0.00,0.0,WeatherDisplay:10.37,2013-08-14 07:22:00,
2013-08-14 02:27:00,81.4,78.5,29.91,ESE,103,6.0,6.0,91,0.00,CLR,SKC,0.00,0.0,WeatherDisplay:10.37,2013-08-14 07:27:00,
2013-08-14 02:32:00,81.3,78.4,29.91,SSE,150,6.9,6.9,91,0.00,CLR,SKC,0.00,0.0,WeatherDisplay:10.37,2013-08-14 07:32:00,
2013-08-14 02:37:00,81.3,78.4,29.91,SSE,161,9.2,9.2,91,0.00,CLR,SKC,0.00,0.0,WeatherDisplay:10.37,2013-08-14 07:37:00,
2013-08-14 02:42:00,81.3,78.4,29.91,South,169,6.9,6.9,91,0.00,CLR,SKC,0.00,0.0,WeatherDisplay:10.37,2013-08-14 07:42:00,
2013-08-14 02:47:00,81.3,78.4,29.91,South,185,5.0,5.0,91,0.00,CLR,SKC,0.00,0.0,WeatherDisplay:10.37,2013-08-14 07:47:00,
2013-08-14 02:52:00,81.3,78.4,29.91,WSW,256,5.8,5.8,91,0.00,CLR,SKC,0.00,0.0,WeatherDisplay:10.37,2013-08-14 07:52:00,
2013-08-14 02:57:00,81.3,78.4,29.92,SSW,199,8.1,8.1,91,0.00,CLR,SKC,0.00,0.0,WeatherDisplay:10.37,2013-08-14 07:57:00,
2013-08-14 03:02:00,81.2,78.3,29.92,SE,133,4.6,4.6,91,0.00,CLR,SKC,0.00,0.0,WeatherDisplay:10.37,2013-08-14 08:02:00,
2013-08-14 03:07:00,81.2,78.3,29.92,WSW,250,5.8,5.8,91,0.00,CLR,SKC,0.00,0.0,WeatherDisplay:10.37,2013-08-14 08:07:00,
2013-08-14 03:12:00,81.2,78.3,29.92,South,170,3.5,3.5,91,0.00,CLR,SKC,0.00,0.0,WeatherDisplay:10.37,2013-08-14 08:12:00,
2013-08-14 03:17:00,81.2,78.3,29.92,SSW,198,4.6,4.6,91,0.00,CLR,SKC,0.00,0.0,WeatherDisplay:10.37,2013-08-14 08:17:00,
2013-08-14 03:22:00,81.2,78.3,29.92,East,88,5.8,5.8,91,0.00,CLR,SKC,0.00,0.0,WeatherDisplay:10.37,2013-08-14 08:22:00,
2013-08-14 03:27:00,81.2,78.3,29.92,SSE,164,4.6,4.6,91,0.00,CLR,SKC,0.00,0.0,WeatherDisplay:10.37,2013-08-14 08:27:00,
2013-08-14 03:32:00,81.2,78.3,29.92,SSW,197,4.6,4.6,91,0.00,CLR,SKC,0.00,0.0,WeatherDisplay:10.37,2013-08-14 08:32:00,
2013-08-14 03:37:00,81.2,78.3,29.92,SSE,163,5.0,5.0,91,0.00,CLR,SKC,0.00,0.0,WeatherDisplay:10.37,2013-08-14 08:37:00,
2013-08-14 03:42:00,81.2,78.3,29.91,South,185,6.0,6.0,91,0.00,CLR,SKC,0.00,0.0,WeatherDisplay:10.37,2013-08-14 08:42:00,
2013-08-14 03:47:00,81.2,78.3,29.91,SSE,165,6.0,6.0,91,0.00,CLR,SKC,0.00,0.0,WeatherDisplay:10.37,2013-08-14 08:47:00,
2013-08-14 03:52:00,81.1,78.2,29.91,SSE,167,2.3,2.3,91,0.00,CLR,SKC,0.00,0.0,WeatherDisplay:10.37,2013-08-14 08:52:00,
2013-08-14 03:57:00,81.1,78.6,29.91,SSE,159,4.6,4.6,92,0.00,CLR,SKC,0.00,0.0,WeatherDisplay:10.37,2013-08-14 08:57:00,
2013-08-14 04:02:00,81.1,78.2,29.91,East,90,5.8,5.8,91,0.00,CLR,SKC,0.00,0.0,WeatherDisplay:10.37,2013-08-14 09:02:00,
2013-08-14 04:07:00,81.1,78.6,29.91,SSE,152,3.5,3.5,92,0.00,CLR,SKC,0.00,0.0,WeatherDisplay:10.37,2013-08-14 09:07:00,
2013-08-14 04:12:00,81.1,78.6,29.91,SSE,167,4.0,4.0,92,0.00,CLR,SKC,0.00,0.0,WeatherDisplay:10.37,2013-08-14 09:12:00,
2013-08-14 04:17:00,81.0,78.1,29.91,NE,50,2.3,2.3,91,0.00,CLR,SKC,0.00,0.0,WeatherDisplay:10.37,2013-08-14 09:17:00,
2013-08-14 04:22:00,81.0,78.5,29.91,West,278,3.5,3.5,92,0.00,CLR,SKC,0.00,0.0,WeatherDisplay:10.37,2013-08-14 09:22:00,
2013-08-14 04:27:00,80.9,78.4,29.91,ESE,119,3.5,3.5,92,0.00,CLR,SKC,0.00,0.0,WeatherDisplay:10.37,2013-08-14 09:27:00,
2013-08-14 04:32:00,80.9,78.4,29.91,South,182,3.5,3.5,92,0.00,CLR,SKC,0.00,0.0,WeatherDisplay:10.37,2013-08-14 09:32:00,
2013-08-14 04:37:00,80.9,78.4,29.91,SSW,205,2.3,2.3,92,0.00,CLR,SKC,0.00,0.0,WeatherDisplay:10.37,2013-08-14 09:37:00,
2013-08-14 04:42:00,80.9,78.4,29.92,West,281,3.5,3.5,92,0.00,CLR,SKC,0.00,0.0,WeatherDisplay:10.37,2013-08-14 09:42:00,
2013-08-14 04:47:00,80.8,78.3,29.92,SW,227,3.5,3.5,92,0.00,CLR,SKC,0.00,0.0,WeatherDisplay:10.37,2013-08-14 09:47:00,
2013-08-14 04:52:00,80.8,78.3,29.92,ESE,113,1.2,1.2,92,0.00,CLR,SKC,0.00,0.0,WeatherDisplay:10.37,2013-08-14 09:52:00,
2013-08-14 04:57:00,80.8,78.3,29.92,South,175,1.2,1.2,92,0.00,CLR,SKC,0.00,0.0,WeatherDisplay:10.37,2013-08-14 09:57:00,
2013-08-14 05:02:00,80.8,78.3,29.92,SW,234,2.3,2.3,92,0.00,CLR,SKC,0.00,0.0,WeatherDisplay:10.37,2013-08-14 10:02:00,
2013-08-14 05:07:00,80.7,78.2,29.92,ENE,72,1.2,1.2,92,0.00,CLR,SKC,0.00,0.0,WeatherDisplay:10.37,2013-08-14 10:07:00,
2013-08-14 05:12:00,80.7,78.2,29.92,South,190,3.5,3.5,92,0.00,CLR,SKC,0.00,0.0,WeatherDisplay:10.37,2013-08-14 10:12:00,
2013-08-14 05:17:00,80.6,78.1,29.92,ENE,75,3.5,0.0,92,0.00,CLR,SKC,0.00,0.0,WeatherDisplay:10.37,2013-08-14 10:17:00,
2013-08-14 05:22:00,80.6,78.1,29.92,SE,137,3.5,3.5,92,0.00,CLR,SKC,0.00,0.0,WeatherDisplay:10.37,2013-08-14 10:22:00,
2013-08-14 05:27:00,80.6,78.1,29.91,SSW,200,4.6,4.6,92,0.00,CLR,SKC,0.00,0.0,WeatherDisplay:10.37,2013-08-14 10:27:00,
2013-08-14 05:32:00,80.6,78.1,29.91,NNE,32,2.3,2.3,92,0.00,CLR,SKC,0.00,0.0,WeatherDisplay:10.37,2013-08-14 10:32:00,
2013-08-14 05:37:00,80.6,78.1,29.91,SW,227,3.5,3.5,92,0.00,CLR,SKC,0.00,0.0,WeatherDisplay:10.37,2013-08-14 10:37:00,
2013-08-14 05:42:00,80.6,78.1,29.92,SE,140,3.5,3.5,92,0.00,CLR,SKC,0.00,0.0,WeatherDisplay:10.37,2013-08-14 10:42:00,
2013-08-14 05:47:00,80.6,78.1,29.92,ESE,108,2.3,2.3,92,0.00,CLR,SKC,0.00,0.0,WeatherDisplay:10.37,2013-08-14 10:47:00,
2013-08-14 05:52:00,80.6,78.1,29.92,South,178,2.3,2.3,92,0.00,CLR,SKC,0.00,0.0,WeatherDisplay:10.37,2013-08-14 10:52:00,
2013-08-14 05:57:00,80.6,78.1,29.92,South,186,3.5,3.5,92,0.00,CLR,SKC,0.00,0.0,WeatherDisplay:10.37,2013-08-14 10:57:00,
2013-08-14 06:02:00,80.6,78.1,29.92,South,189,3.5,3.5,92,0.00,CLR,SKC,0.00,0.0,WeatherDisplay:10.37,2013-08-14 11:02:00,
2013-08-14 06:07:00,80.6,78.1,29.92,SSE,167,3.5,3.5,92,0.00,CLR,SKC,0.00,0.0,WeatherDisplay:10.37,2013-08-14 11:07:00,
2013-08-14 06:12:00,80.6,78.1,29.92,SSW,198,3.5,3.5,92,0.00,CLR,SKC,0.00,0.0,WeatherDisplay:10.37,2013-08-14 11:12:00,
2013-08-14 06:17:00,80.6,78.1,29.92,WSW,257,2.3,2.3,92,0.00,CLR,SKC,0.00,0.0,WeatherDisplay:10.37,2013-08-14 11:17:00,
2013-08-14 06:22:00,80.5,78.0,29.92,SSW,210,3.5,3.5,92,0.00,CLR,SKC,0.00,0.0,WeatherDisplay:10.37,2013-08-14 11:22:00,
2013-08-14 06:27:00,80.5,78.0,29.91,NW,317,3.5,3.5,92,0.00,CLR,SKC,0.00,0.0,WeatherDisplay:10.37,2013-08-14 11:27:00,
2013-08-14 06:32:00,80.5,78.0,29.91,WSW,257,2.3,2.3,92,0.00,CLR,SKC,0.00,0.0,WeatherDisplay:10.37,2013-08-14 11:32:00,
2013-08-14 06:37:00,80.5,78.0,29.91,South,175,2.3,2.3,92,0.00,CLR,SKC,0.00,0.0,WeatherDisplay:10.37,2013-08-14 11:37:00,
2013-08-14 06:42:00,80.4,77.9,29.92,SE,144,3.5,3.5,92,0.00,CLR,SKC,0.00,0.0,WeatherDisplay:10.37,2013-08-14 11:42:00,
2013-08-14 06:47:00,80.3,77.8,29.92,South,185,3.5,3.5,92,0.00,CLR,SKC,0.00,0.0,WeatherDisplay:10.37,2013-08-14 11:47:00,
2013-08-14 06:52:00,80.3,77.8,29.92,SSE,168,1.2,1.2,92,0.00,CLR,SKC,0.00,0.0,WeatherDisplay:10.37,2013-08-14 11:52:00,
2013-08-14 06:57:00,80.3,77.8,29.92,SSW,199,1.2,1.2,92,0.00,CLR,SKC,0.00,0.0,WeatherDisplay:10.37,2013-08-14 11:57:00,
2013-08-14 07:02:00,80.2,77.7,29.92,SW,227,1.2,1.2,92,0.00,CLR,SKC,0.00,7.0,WeatherDisplay:10.37,2013-08-14 12:02:00,
2013-08-14 07:07:00,80.2,77.7,29.92,South,183,3.5,3.5,92,0.00,CLR,SKC,0.00,9.0,WeatherDisplay:10.37,2013-08-14 12:07:00,
2013-08-14 07:12:00,80.1,77.6,29.92,SSE,148,2.3,2.3,92,0.00,CLR,SKC,0.00,18.0,WeatherDisplay:10.37,2013-08-14 12:12:00,
2013-08-14 07:17:00,80.1,77.6,29.92,SSW,209,2.0,2.0,92,0.00,CLR,SKC,0.00,30.0,WeatherDisplay:10.37,2013-08-14 12:17:00,
2013-08-14 07:22:00,80.0,77.8,29.92,WSW,238,1.2,1.2,93,0.00,CLR,SKC,0.00,53.0,WeatherDisplay:10.37,2013-08-14 12:22:00,
2013-08-14 07:27:00,80.1,77.9,29.92,South,186,1.2,0.0,93,0.00,CLR,SKC,0.00,25.0,WeatherDisplay:10.37,2013-08-14 12:27:00,
2013-08-14 07:32:00,80.1,77.9,29.92,SE,140,3.0,3.0,93,0.00,CLR,SKC,0.00,35.0,WeatherDisplay:10.37,2013-08-14 12:32:00,
2013-08-14 07:37:00,80.1,77.9,29.92,SW,217,1.2,1.2,93,0.00,CLR,SKC,0.00,49.0,WeatherDisplay:10.37,2013-08-14 12:37:00,
2013-08-14 07:42:00,80.2,78.0,29.93,SW,217,0.0,0.0,93,0.00,CLR,SKC,0.00,40.0,WeatherDisplay:10.37,2013-08-14 12:42:00,
2013-08-14 07:47:00,80.2,78.0,29.93,SSW,208,1.2,1.2,93,0.00,CLR,SKC,0.00,32.0,WeatherDisplay:10.37,2013-08-14 12:47:00,
2013-08-14 07:52:00,80.2,78.0,29.93,ESE,119,1.2,0.0,93,0.00,CLR,SKC,0.00,35.0,WeatherDisplay:10.37,2013-08-14 12:52:00,
2013-08-14 07:57:00,80.3,78.1,29.93,ESE,119,0.0,0.0,93,0.00,CLR,SKC,0.00,33.0,WeatherDisplay:10.37,2013-08-14 12:57:00,
2013-08-14 08:02:00,80.3,78.1,29.93,SSW,213,1.2,0.0,93,0.00,CLR,SKC,0.00,33.0,WeatherDisplay:10.37,2013-08-14 13:02:00,
2013-08-14 08:07:00,80.4,78.2,29.93,SSW,205,0.0,0.0,93,0.00,CLR,SKC,0.00,39.0,WeatherDisplay:10.37,2013-08-14 13:07:00,
2013-08-14 08:12:00,80.5,78.3,29.93,NNW,332,0.0,0.0,93,0.00,CLR,SKC,0.00,47.0,WeatherDisplay:10.37,2013-08-14 13:12:00,
2013-08-14 08:17:00,80.6,78.4,29.93,SSE,161,1.2,1.2,93,0.00,CLR,SKC,0.00,104.0,WeatherDisplay:10.37,2013-08-14 13:17:00,
2013-08-14 08:22:00,80.8,78.6,29.93,South,184,0.0,0.0,93,0.00,CLR,SKC,0.00,141.0,WeatherDisplay:10.37,2013-08-14 13:22:00,
2013-08-14 08:27:00,81.0,78.8,29.93,SSW,199,1.2,0.0,93,0.00,CLR,SKC,0.00,176.0,WeatherDisplay:10.37,2013-08-14 13:27:00,
2013-08-14 08:32:00,81.2,79.0,29.93,SSE,163,3.5,3.5,93,0.00,CLR,SKC,0.00,200.0,WeatherDisplay:10.37,2013-08-14 13:32:00,
2013-08-14 08:37:00,81.4,79.2,29.93,SSW,211,0.0,0.0,93,0.00,CLR,SKC,0.00,234.0,WeatherDisplay:10.37,2013-08-14 13:37:00,
2013-08-14 08:42:00,81.6,79.0,29.93,SSE,148,2.0,2.0,92,0.00,CLR,SKC,0.00,237.0,WeatherDisplay:10.37,2013-08-14 13:42:00,
2013-08-14 08:47:00,81.8,79.2,29.93,WSW,243,0.0,0.0,92,0.00,CLR,SKC,0.00,232.0,WeatherDisplay:10.37,2013-08-14 13:47:00,
2013-08-14 08:52:00,82.0,79.1,29.93,East,84,3.5,3.5,91,0.00,CLR,SKC,0.00,211.0,WeatherDisplay:10.37,2013-08-14 13:52:00,
2013-08-14 08:57:00,82.2,79.0,29.94,WNW,295,1.2,1.2,90,0.00,CLR,SKC,0.00,172.0,WeatherDisplay:10.37,2013-08-14 13:57:00,
2013-08-14 09:02:00,82.5,79.3,29.94,ESE,117,0.0,0.0,90,0.00,CLR,SKC,0.00,313.0,WeatherDisplay:10.37,2013-08-14 14:02:00,
2013-08-14 09:07:00,82.8,79.2,29.94,SW,235,1.2,1.2,89,0.00,CLR,SKC,0.00,332.0,WeatherDisplay:10.37,2013-08-14 14:07:00,
2013-08-14 09:12:00,83.1,79.5,29.95,SSW,212,1.2,1.2,89,0.00,CLR,SKC,0.00,373.0,WeatherDisplay:10.37,2013-08-14 14:12:00,
2013-08-14 09:17:00,83.2,79.3,29.95,SW,233,1.2,1.2,88,0.00,CLR,SKC,0.00,192.0,WeatherDisplay:10.37,2013-08-14 14:17:00,
2013-08-14 09:22:00,83.4,79.1,29.95,South,180,1.2,1.2,87,0.00,CLR,SKC,0.00,104.0,WeatherDisplay:10.37,2013-08-14 14:22:00,
2013-08-14 09:27:00,83.4,78.8,29.95,South,191,3.5,3.5,86,0.00,CLR,SKC,0.00,283.0,WeatherDisplay:10.37,2013-08-14 14:27:00,
2013-08-14 09:32:00,83.5,78.5,29.95,North,355,3.5,3.5,85,0.00,CLR,SKC,0.00,251.0,WeatherDisplay:10.37,2013-08-14 14:32:00,
2013-08-14 09:37:00,83.6,78.2,29.95,SE,131,2.0,2.0,84,0.00,CLR,SKC,0.00,338.0,WeatherDisplay:10.37,2013-08-14 14:37:00,
2013-08-14 09:42:00,83.9,78.5,29.95,South,188,5.8,5.8,84,0.00,CLR,SKC,0.00,338.0,WeatherDisplay:10.37,2013-08-14 14:42:00,
2013-08-14 09:47:00,84.3,78.6,29.95,East,100,3.5,3.5,83,0.00,CLR,SKC,0.00,425.0,WeatherDisplay:10.37,2013-08-14 14:47:00,
2013-08-14 09:52:00,84.6,78.9,29.95,South,185,9.2,9.2,83,0.00,CLR,SKC,0.00,448.0,WeatherDisplay:10.37,2013-08-14 14:52:00,
2013-08-14 09:57:00,84.8,78.7,29.95,West,268,10.4,10.4,82,0.00,CLR,SKC,0.00,381.0,WeatherDisplay:10.37,2013-08-14 14:57:00,
2013-08-14 10:02:00,85.1,78.6,29.95,SE,132,4.6,4.6,81,0.00,CLR,SKC,0.00,348.0,WeatherDisplay:10.37,2013-08-14 15:02:00,
2013-08-14 10:07:00,85.2,78.7,29.95,South,171,6.0,6.0,81,0.00,CLR,SKC,0.00,473.0,WeatherDisplay:10.37,2013-08-14 15:07:00,
2013-08-14 10:12:00,85.4,78.9,29.95,NW,317,2.3,2.3,81,0.00,CLR,SKC,0.00,608.0,WeatherDisplay:10.37,2013-08-14 15:12:00,
2013-08-14 10:17:00,85.6,78.7,29.95,South,187,4.6,4.6,80,0.00,CLR,SKC,0.00,731.0,WeatherDisplay:10.37,2013-08-14 15:17:00,
2013-08-14 10:22:00,86.0,78.7,29.95,South,171,3.5,3.5,79,0.00,CLR,SKC,0.00,756.0,WeatherDisplay:10.37,2013-08-14 15:22:00,
2013-08-14 10:27:00,86.5,79.2,29.96,SE,146,4.6,4.6,79,0.00,CLR,SKC,0.00,828.0,WeatherDisplay:10.37,2013-08-14 15:27:00,
2013-08-14 10:32:00,87.1,79.0,29.96,South,173,2.3,2.3,77,0.00,CLR,SKC,0.00,860.0,WeatherDisplay:10.37,2013-08-14 15:32:00,
2013-08-14 10:37:00,87.3,79.2,29.96,ENE,61,2.3,2.3,77,0.00,CLR,SKC,0.00,881.0,WeatherDisplay:10.37,2013-08-14 15:37:00,
2013-08-14 10:42:00,87.5,79.4,29.96,SW,225,2.3,2.3,77,0.00,CLR,SKC,0.00,877.0,WeatherDisplay:10.37,2013-08-14 15:42:00,
2013-08-14 10:47:00,87.5,79.4,29.96,West,263,2.0,2.0,77,0.00,CLR,SKC,0.00,476.0,WeatherDisplay:10.37,2013-08-14 15:47:00,
2013-08-14 10:54:00,87.3,79.2,29.96,South,188,3.5,3.5,77,0.00,CLR,SKC,0.00,744.0,WeatherDisplay:10.37,2013-08-14 15:54:00,
2013-08-14 10:59:00,87.4,79.3,29.96,SSE,156,3.5,3.5,77,0.00,CLR,SKC,0.00,517.0,WeatherDisplay:10.37,2013-08-14 15:59:00,
2013-08-14 11:04:00,87.4,78.9,29.96,South,169,10.4,10.4,76,0.00,CLR,SKC,0.00,680.0,WeatherDisplay:10.37,2013-08-14 16:04:00,
2013-08-14 11:09:00,87.4,79.3,29.96,South,190,8.1,8.1,77,0.00,CLR,SKC,0.00,728.0,WeatherDisplay:10.37,2013-08-14 16:09:00,
2013-08-14 11:14:00,87.6,79.1,29.95,SE,130,4.6,4.6,76,0.00,CLR,SKC,0.00,761.0,WeatherDisplay:10.37,2013-08-14 16:14:00,
2013-08-14 11:19:00,87.9,79.0,29.95,ESE,117,6.9,6.9,75,0.00,CLR,SKC,0.00,751.0,WeatherDisplay:10.37,2013-08-14 16:19:00,
2013-08-14 11:24:00,88.0,79.1,29.95,ESE,119,5.8,5.8,75,0.00,CLR,SKC,0.00,661.0,WeatherDisplay:10.37,2013-08-14 16:24:00,
2013-08-14 11:29:00,87.8,78.9,29.95,East,100,9.2,9.2,75,0.00,CLR,SKC,0.00,496.0,WeatherDisplay:10.37,2013-08-14 16:29:00,
2013-08-14 11:34:00,87.2,78.7,29.95,SE,130,6.9,6.9,76,0.00,CLR,SKC,0.00,570.0,WeatherDisplay:10.37,2013-08-14 16:34:00,
2013-08-14 11:39:00,87.0,78.9,29.95,SE,136,10.4,10.4,77,0.00,CLR,SKC,0.00,555.0,WeatherDisplay:10.37,2013-08-14 16:39:00,
2013-08-14 11:44:00,86.8,78.7,29.94,South,175,9.0,9.0,77,0.00,CLR,SKC,0.00,659.0,WeatherDisplay:10.37,2013-08-14 16:44:00,
2013-08-14 11:49:00,86.9,78.8,29.94,SSE,165,10.4,10.4,77,0.00,CLR,SKC,0.00,659.0,WeatherDisplay:10.37,2013-08-14 16:49:00,
2013-08-14 11:54:00,86.9,78.8,29.94,SSE,168,9.2,9.2,77,0.00,CLR,SKC,0.00,786.0,WeatherDisplay:10.37,2013-08-14 16:54:00,
2013-08-14 12:00:00,87.1,78.6,29.94,SE,145,5.0,12.0,76,0.00,CLR,SKC,0.00,772.0,WeatherDisplay:10.37,2013-08-14 17:00:00,
2013-08-14 12:05:00,87.5,79.0,29.94,ESE,117,10.0,10.0,76,0.00,CLR,SKC,0.00,884.0,WeatherDisplay:10.37,2013-08-14 17:05:00,
2013-08-14 12:10:00,87.9,79.4,29.94,SSE,163,5.8,5.8,76,0.00,CLR,SKC,0.00,816.0,WeatherDisplay:10.37,2013-08-14 17:10:00,
2013-08-14 12:15:00,88.1,79.2,29.94,SE,138,9.2,9.2,75,0.00,CLR,SKC,0.00,849.0,WeatherDisplay:10.37,2013-08-14 17:15:00,
2013-08-14 12:20:00,88.2,79.3,29.94,ENE,67,11.5,11.5,75,0.00,CLR,SKC,0.00,877.0,WeatherDisplay:10.37,2013-08-14 17:20:00,
2013-08-14 12:25:00,88.2,78.9,29.94,SE,139,9.2,9.2,74,0.00,CLR,SKC,0.00,886.0,WeatherDisplay:10.37,2013-08-14 17:25:00,
2013-08-14 12:30:00,88.1,78.8,29.94,East,90,4.6,4.6,74,0.00,FEW,SKC,0.00,780.0,WeatherDisplay:10.37,2013-08-14 17:30:00,
2013-08-14 12:35:00,88.0,79.1,29.94,ESE,115,8.1,8.1,75,0.00,CLR,SKC,0.00,865.0,WeatherDisplay:10.37,2013-08-14 17:35:00,
2013-08-14 12:40:00,87.9,78.6,29.94,SE,124,6.9,6.9,74,0.00,FEW,SKC,0.00,828.0,WeatherDisplay:10.37,2013-08-14 17:40:00,
2013-08-14 12:45:00,88.1,78.3,29.94,SE,138,9.0,9.0,73,0.00,FEW,SKC,0.00,784.0,WeatherDisplay:10.37,2013-08-14 17:45:00,
2013-08-14 12:50:00,88.0,78.7,29.94,ESE,122,9.2,9.2,74,0.00,FEW,SKC,0.00,777.0,WeatherDisplay:10.37,2013-08-14 17:50:00,
2013-08-14 12:55:00,87.5,78.2,29.93,SE,134,10.4,10.4,74,0.00,FEW,SKC,0.00,712.0,WeatherDisplay:10.37,2013-08-14 17:55:00,
2013-08-14 13:00:00,87.4,77.7,29.93,ESE,114,12.0,12.0,73,0.00,FEW,SKC,0.00,809.0,WeatherDisplay:10.37,2013-08-14 18:00:00,
2013-08-14 13:05:00,87.5,78.2,29.93,ESE,121,10.0,10.0,74,0.00,CLR,SKC,0.00,714.0,WeatherDisplay:10.37,2013-08-14 18:05:00,
2013-08-14 13:10:00,87.3,77.6,29.94,SE,146,8.1,8.1,73,0.00,CLR,SKC,0.00,766.0,WeatherDisplay:10.37,2013-08-14 18:10:00,
2013-08-14 13:15:00,87.0,77.3,29.94,SE,125,5.8,5.8,73,0.00,CLR,SKC,0.00,677.0,WeatherDisplay:10.37,2013-08-14 18:15:00,
2013-08-14 13:21:00,87.3,77.6,29.94,ESE,118,6.9,6.9,73,0.00,CLR,SKC,0.00,773.0,WeatherDisplay:10.37,2013-08-14 18:21:00,
2013-08-14 13:26:00,87.3,77.2,29.94,SE,137,10.4,10.4,72,0.00,CLR,SKC,0.00,608.0,WeatherDisplay:10.37,2013-08-14 18:26:00,
2013-08-14 13:31:00,87.2,76.2,29.94,SE,128,9.2,9.2,70,0.00,CLR,SKC,0.00,694.0,WeatherDisplay:10.37,2013-08-14 18:31:00,
2013-08-14 13:36:00,87.0,75.6,29.94,SE,142,11.5,11.5,69,0.00,CLR,SKC,0.00,770.0,WeatherDisplay:10.37,2013-08-14 18:36:00,
2013-08-14 13:42:00,87.6,77.0,29.93,ESE,122,11.5,11.5,71,0.00,CLR,SKC,0.00,840.0,WeatherDisplay:10.37,2013-08-14 18:42:00,
2013-08-14 13:47:00,87.5,76.9,29.93,ESE,123,6.9,6.9,71,0.00,CLR,SKC,0.00,851.0,WeatherDisplay:10.37,2013-08-14 18:47:00,
2013-08-14 13:52:00,87.5,76.1,29.93,SE,134,11.5,11.5,69,0.00,CLR,SKC,0.00,904.0,WeatherDisplay:10.37,2013-08-14 18:52:00,
2013-08-14 13:58:00,87.8,77.6,29.92,SSE,155,9.2,9.2,72,0.00,CLR,SKC,0.00,896.0,WeatherDisplay:10.37,2013-08-14 18:58:00,
2013-08-14 14:03:00,87.4,77.3,29.92,ESE,108,11.5,11.5,72,0.00,CLR,SKC,0.00,921.0,WeatherDisplay:10.37,2013-08-14 19:03:00,
2013-08-14 14:08:00,87.4,76.0,29.92,ESE,119,9.2,9.2,69,0.00,CLR,SKC,0.00,905.0,WeatherDisplay:10.37,2013-08-14 19:08:00,
2013-08-14 14:13:00,87.4,77.7,29.91,SE,131,11.5,11.5,73,0.00,CLR,SKC,0.00,925.0,WeatherDisplay:10.37,2013-08-14 19:13:00,
2013-08-14 14:18:00,87.4,77.3,29.91,ESE,104,8.1,8.1,72,0.00,CLR,SKC,0.00,923.0,WeatherDisplay:10.37,2013-08-14 19:18:00,
2013-08-14 14:25:00,87.0,77.3,29.91,ESE,117,11.5,11.5,73,0.00,CLR,SKC,0.00,932.0,WeatherDisplay:10.37,2013-08-14 19:25:00,
2013-08-14 14:31:00,86.9,77.6,29.91,SE,128,8.0,12.0,74,0.00,CLR,SKC,0.00,928.0,WeatherDisplay:10.37,2013-08-14 19:31:00,
2013-08-14 14:36:00,86.6,77.7,29.91,ESE,107,13.8,13.8,75,0.00,CLR,SKC,0.00,921.0,WeatherDisplay:10.37,2013-08-14 19:36:00,
2013-08-14 14:41:00,86.4,77.5,29.91,SE,142,10.4,10.4,75,0.00,CLR,SKC,0.00,911.0,WeatherDisplay:10.37,2013-08-14 19:41:00,
2013-08-14 14:47:00,87.1,78.2,29.91,ESE,104,10.4,10.4,75,0.00,CLR,SKC,0.00,902.0,WeatherDisplay:10.37,2013-08-14 19:47:00,
2013-08-14 14:52:00,87.3,78.4,29.91,SE,136,11.5,11.5,75,0.00,CLR,SKC,0.00,893.0,WeatherDisplay:10.37,2013-08-14 19:52:00,
2013-08-14 14:58:00,86.8,77.9,29.91,SE,125,11.5,11.5,75,0.00,CLR,SKC,0.00,882.0,WeatherDisplay:10.37,2013-08-14 19:58:00,
2013-08-14 15:03:00,86.2,77.7,29.91,SE,134,13.8,13.8,76,0.00,CLR,SKC,0.00,872.0,WeatherDisplay:10.37,2013-08-14 20:03:00,
2013-08-14 15:08:00,85.9,77.5,29.91,ESE,113,12.7,12.7,76,0.00,CLR,SKC,0.00,861.0,WeatherDisplay:10.37,2013-08-14 20:08:00,
2013-08-14 15:13:00,86.1,78.0,29.90,ESE,113,11.5,11.5,77,0.00,CLR,SKC,0.00,851.0,WeatherDisplay:10.37,2013-08-14 20:13:00,
2013-08-14 15:18:00,85.9,77.5,29.90,SE,144,11.5,11.5,76,0.00,CLR,SKC,0.00,842.0,WeatherDisplay:10.37,2013-08-14 20:18:00,
2013-08-14 15:24:00,86.2,77.3,29.90,SE,131,12.7,12.7,75,0.00,CLR,SKC,0.00,835.0,WeatherDisplay:10.37,2013-08-14 20:24:00,
2013-08-14 15:29:00,86.6,77.7,29.90,SE,130,11.5,11.5,75,0.00,CLR,SKC,0.00,824.0,WeatherDisplay:10.37,2013-08-14 20:29:00,
2013-08-14 15:34:00,86.2,76.9,29.90,ESE,120,11.5,11.5,74,0.00,CLR,SKC,0.00,810.0,WeatherDisplay:10.37,2013-08-14 20:34:00,
2013-08-14 15:39:00,86.1,76.8,29.89,SE,124,15.0,15.0,74,0.00,CLR,SKC,0.00,798.0,WeatherDisplay:10.37,2013-08-14 20:39:00,
2013-08-14 15:44:00,85.7,76.5,29.89,SE,135,13.8,13.8,74,0.00,CLR,SKC,0.00,789.0,WeatherDisplay:10.37,2013-08-14 20:44:00,
2013-08-14 15:50:00,85.9,77.5,29.89,ESE,114,12.7,12.7,76,0.00,CLR,SKC,0.00,779.0,WeatherDisplay:10.37,2013-08-14 20:50:00,
2013-08-14 15:55:00,86.2,77.3,29.88,SE,127,16.1,16.1,75,0.00,CLR,SKC,0.00,766.0,WeatherDisplay:10.37,2013-08-14 20:55:00,
2013-08-14 16:00:00,85.6,77.6,29.88,ESE,123,12.7,12.7,77,0.00,CLR,SKC,0.00,754.0,WeatherDisplay:10.37,2013-08-14 21:00:00,
2013-08-14 16:05:00,85.5,77.1,29.88,SE,124,18.4,18.4,76,0.00,CLR,SKC,0.00,740.0,WeatherDisplay:10.37,2013-08-14 21:05:00,
2013-08-14 16:10:00,85.8,77.8,29.88,South,178,11.5,11.5,77,0.00,CLR,SKC,0.00,729.0,WeatherDisplay:10.37,2013-08-14 21:10:00,
2013-08-14 16:15:00,85.9,77.5,29.88,ESE,121,13.8,13.8,76,0.00,CLR,SKC,0.00,712.0,WeatherDisplay:10.37,2013-08-14 21:15:00,
2013-08-14 16:20:00,85.4,77.0,29.88,ESE,103,16.1,16.1,76,0.00,CLR,SKC,0.00,698.0,WeatherDisplay:10.37,2013-08-14 21:20:00,
2013-08-14 16:25:00,85.3,77.3,29.88,SE,143,12.7,12.7,77,0.00,CLR,SKC,0.00,684.0,WeatherDisplay:10.37,2013-08-14 21:25:00,
2013-08-14 16:30:00,85.2,76.8,29.88,SE,125,18.4,18.4,76,0.00,CLR,SKC,0.00,671.0,WeatherDisplay:10.37,2013-08-14 21:30:00,
2013-08-14 16:35:00,85.1,77.1,29.88,ESE,121,17.3,17.3,77,0.00,CLR,SKC,0.00,656.0,WeatherDisplay:10.37,2013-08-14 21:35:00,
2013-08-14 16:40:00,85.2,77.6,29.87,ESE,115,11.5,11.5,78,0.00,CLR,SKC,0.00,640.0,WeatherDisplay:10.37,2013-08-14 21:40:00,
2013-08-14 16:45:00,85.2,77.2,29.87,ESE,112,15.0,15.0,77,0.00,CLR,SKC,0.00,626.0,WeatherDisplay:10.37,2013-08-14 21:45:00,
2013-08-14 16:50:00,85.1,77.5,29.87,SE,125,15.0,15.0,78,0.00,CLR,SKC,0.00,610.0,WeatherDisplay:10.37,2013-08-14 21:50:00,
2013-08-14 16:55:00,85.2,77.6,29.87,East,98,15.0,15.0,78,0.00,CLR,SKC,0.00,603.0,WeatherDisplay:10.37,2013-08-14 21:55:00,
2013-08-14 17:01:00,85.1,77.8,29.87,ESE,123,9.0,17.0,79,0.00,CLR,SKC,0.00,577.0,WeatherDisplay:10.37,2013-08-14 22:01:00,
2013-08-14 17:05:00,85.0,77.4,29.87,ENE,73,16.1,16.1,78,0.00,CLR,SKC,0.00,563.0,WeatherDisplay:10.37,2013-08-14 22:05:00,
2013-08-14 17:10:00,84.9,77.7,29.87,East,97,18.4,18.4,79,0.00,CLR,SKC,0.00,545.0,WeatherDisplay:10.37,2013-08-14 22:10:00,
2013-08-14 17:15:00,85.0,77.8,29.87,ESE,115,12.7,12.7,79,0.00,CLR,SKC,0.00,548.0,WeatherDisplay:10.37,2013-08-14 22:15:00,
2013-08-14 17:20:00,85.0,77.4,29.87,SE,139,14.0,14.0,78,0.00,CLR,SKC,0.00,517.0,WeatherDisplay:10.37,2013-08-14 22:20:00,
2013-08-14 17:25:00,85.0,77.8,29.86,ESE,118,13.8,13.8,79,0.00,CLR,SKC,0.00,499.0,WeatherDisplay:10.37,2013-08-14 22:25:00,
2013-08-14 17:31:00,84.8,77.6,29.86,ESE,107,13.8,13.8,79,0.00,CLR,SKC,0.00,480.0,WeatherDisplay:10.37,2013-08-14 22:31:00,
2013-08-14 17:36:00,84.9,78.0,29.86,ESE,107,16.1,16.1,80,0.00,CLR,SKC,0.00,462.0,WeatherDisplay:10.37,2013-08-14 22:36:00,
2013-08-14 17:41:00,84.9,77.7,29.86,ESE,113,17.3,17.3,79,0.00,CLR,SKC,0.00,446.0,WeatherDisplay:10.37,2013-08-14 22:41:00,
2013-08-14 17:46:00,84.7,77.8,29.86,ESE,104,15.0,15.0,80,0.00,CLR,SKC,0.00,427.0,WeatherDisplay:10.37,2013-08-14 22:46:00,
2013-08-14 17:51:00,84.5,77.3,29.86,SE,126,16.1,16.1,79,0.00,CLR,SKC,0.00,415.0,WeatherDisplay:10.37,2013-08-14 22:51:00,
2013-08-14 17:56:00,84.4,77.6,29.86,ESE,102,16.1,16.1,80,0.00,CLR,SKC,0.00,390.0,WeatherDisplay:10.37,2013-08-14 22:56:00,
2013-08-14 18:02:00,84.6,78.1,29.86,ESE,119,15.0,15.0,81,0.00,CLR,SKC,0.00,374.0,WeatherDisplay:10.37,2013-08-14 23:02:00,
2013-08-14 18:07:00,84.7,78.2,29.86,ESE,105,16.1,16.1,81,0.00,CLR,SKC,0.00,353.0,WeatherDisplay:10.37,2013-08-14 23:07:00,
2013-08-14 18:12:00,84.4,78.3,29.86,ESE,111,13.0,13.0,82,0.00,CLR,SKC,0.00,336.0,WeatherDisplay:10.37,2013-08-14 23:12:00,
2013-08-14 18:17:00,84.4,77.9,29.86,ESE,103,15.0,15.0,81,0.00,CLR,SKC,0.00,320.0,WeatherDisplay:10.37,2013-08-14 23:17:00,
2013-08-14 18:22:00,84.3,77.8,29.86,ESE,102,17.3,17.3,81,0.00,CLR,SKC,0.00,304.0,WeatherDisplay:10.37,2013-08-14 23:22:00,
2013-08-14 18:27:00,84.3,78.2,29.86,SE,130,11.5,11.5,82,0.00,CLR,SKC,0.00,288.0,WeatherDisplay:10.37,2013-08-14 23:27:00,
2013-08-14 18:32:00,84.2,78.1,29.86,SE,144,16.0,16.0,82,0.00,CLR,SKC,0.00,271.0,WeatherDisplay:10.37,2013-08-14 23:32:00,
2013-08-14 18:37:00,84.3,78.2,29.86,ESE,121,16.1,16.1,82,0.00,CLR,SKC,0.00,250.0,WeatherDisplay:10.37,2013-08-14 23:37:00,
2013-08-14 18:42:00,84.1,78.0,29.87,ESE,104,16.1,16.1,82,0.00,CLR,SKC,0.00,234.0,WeatherDisplay:10.37,2013-08-14 23:42:00,
2013-08-14 18:47:00,84.1,78.0,29.87,SE,127,15.0,15.0,82,0.00,CLR,SKC,0.00,218.0,WeatherDisplay:10.37,2013-08-14 23:47:00,
2013-08-14 18:52:00,84.0,77.9,29.87,SE,126,13.8,13.8,82,0.00,CLR,SKC,0.00,200.0,WeatherDisplay:10.37,2013-08-14 23:52:00,
2013-08-14 18:57:00,83.8,78.1,29.87,East,98,15.0,15.0,83,0.00,CLR,SKC,0.00,185.0,WeatherDisplay:10.37,2013-08-14 23:57:00,
2013-08-14 19:02:00,83.7,78.0,29.87,ESE,115,12.0,12.0,83,0.00,CLR,SKC,0.00,167.0,WeatherDisplay:10.37,2013-08-15 00:02:00,
2013-08-14 19:07:00,83.6,77.9,29.87,ESE,109,16.1,16.1,83,0.00,CLR,SKC,0.00,153.0,WeatherDisplay:10.37,2013-08-15 00:07:00,
2013-08-14 19:12:00,83.6,77.9,29.87,ESE,117,16.1,16.1,83,0.00,CLR,SKC,0.00,137.0,WeatherDisplay:10.37,2013-08-15 00:12:00,
2013-08-14 19:17:00,83.5,78.2,29.87,ESE,117,16.1,16.1,84,0.00,CLR,SKC,0.00,116.0,WeatherDisplay:10.37,2013-08-15 00:17:00,
2013-08-14 19:22:00,83.4,78.1,29.87,ESE,115,15.0,15.0,84,0.00,CLR,SKC,0.00,95.0,WeatherDisplay:10.37,2013-08-15 00:22:00,
2013-08-14 19:27:00,83.3,78.0,29.87,ESE,104,15.0,15.0,84,0.00,CLR,SKC,0.00,79.0,WeatherDisplay:10.37,2013-08-15 00:27:00,
2013-08-14 19:32:00,83.2,78.2,29.87,ESE,119,14.0,14.0,85,0.00,CLR,SKC,0.00,63.0,WeatherDisplay:10.37,2013-08-15 00:32:00,
2013-08-14 19:37:00,83.2,78.2,29.87,SE,133,10.4,10.4,85,0.00,CLR,SKC,0.00,49.0,WeatherDisplay:10.37,2013-08-15 00:37:00,
2013-08-14 19:42:00,83.1,78.1,29.86,ESE,115,15.0,15.0,85,0.00,CLR,SKC,0.00,37.0,WeatherDisplay:10.37,2013-08-15 00:42:00,
2013-08-14 19:47:00,82.9,77.9,29.86,ESE,116,11.5,11.5,85,0.00,CLR,SKC,0.00,26.0,WeatherDisplay:10.37,2013-08-15 00:47:00,
2013-08-14 19:52:00,82.9,77.9,29.86,ESE,105,16.1,16.1,85,0.00,CLR,SKC,0.00,19.0,WeatherDisplay:10.37,2013-08-15 00:52:00,
2013-08-14 19:57:00,82.7,77.7,29.86,ESE,122,10.4,10.4,85,0.00,CLR,SKC,0.00,12.0,WeatherDisplay:10.37,2013-08-15 00:57:00,
2013-08-14 20:02:00,82.7,78.1,29.86,ESE,117,13.8,13.8,86,0.00,CLR,SKC,0.00,7.0,WeatherDisplay:10.37,2013-08-15 01:02:00,
2013-08-14 20:07:00,82.6,78.0,29.86,ESE,111,15.0,15.0,86,0.00,CLR,SKC,0.00,0.0,WeatherDisplay:10.37,2013-08-15 01:07:00,
2013-08-14 20:12:00,82.5,77.9,29.87,ESE,111,12.7,12.7,86,0.00,CLR,SKC,0.00,0.0,WeatherDisplay:10.37,2013-08-15 01:12:00,
2013-08-14 20:17:00,82.4,78.1,29.87,ESE,113,12.7,12.7,87,0.00,CLR,SKC,0.00,0.0,WeatherDisplay:10.37,2013-08-15 01:17:00,
2013-08-14 20:22:00,82.2,77.9,29.87,ESE,120,11.5,11.5,87,0.00,CLR,SKC,0.00,0.0,WeatherDisplay:10.37,2013-08-15 01:22:00,
2013-08-14 20:27:00,82.2,77.9,29.87,ESE,118,10.4,10.4,87,0.00,CLR,SKC,0.00,0.0,WeatherDisplay:10.37,2013-08-15 01:27:00,
2013-08-14 20:32:00,82.1,77.5,29.87,ESE,117,15.0,15.0,86,0.00,CLR,SKC,0.00,0.0,WeatherDisplay:10.37,2013-08-15 01:32:00,
2013-08-14 20:37:00,82.1,77.8,29.87,SE,138,11.5,11.5,87,0.00,CLR,SKC,0.00,0.0,WeatherDisplay:10.37,2013-08-15 01:37:00,
2013-08-14 20:42:00,82.1,77.8,29.86,SE,140,12.7,12.7,87,0.00,CLR,SKC,0.00,0.0,WeatherDisplay:10.37,2013-08-15 01:42:00,
2013-08-14 20:47:00,82.1,77.8,29.86,ESE,116,13.8,13.8,87,0.00,CLR,SKC,0.00,0.0,WeatherDisplay:10.37,2013-08-15 01:47:00,
2013-08-14 20:52:00,82.1,77.8,29.86,ESE,120,12.7,12.7,87,0.00,CLR,SKC,0.00,0.0,WeatherDisplay:10.37,2013-08-15 01:52:00,
2013-08-14 20:57:00,82.0,77.4,29.87,SE,124,17.3,17.3,86,0.00,CLR,SKC,0.00,0.0,WeatherDisplay:10.37,2013-08-15 01:57:00,
2013-08-14 21:02:00,82.0,77.4,29.87,ESE,119,13.8,13.8,86,0.00,CLR,SKC,0.00,0.0,WeatherDisplay:10.37,2013-08-15 02:02:00,
2013-08-14 21:07:00,82.0,77.4,29.87,SE,130,15.0,15.0,86,0.00,CLR,SKC,0.00,0.0,WeatherDisplay:10.37,2013-08-15 02:07:00,
2013-08-14 21:12:00,82.0,77.4,29.87,ESE,107,12.7,12.7,86,0.00,CLR,SKC,0.00,0.0,WeatherDisplay:10.37,2013-08-15 02:12:00,
2013-08-14 21:17:00,82.0,77.4,29.87,SE,129,12.7,12.7,86,0.00,CLR,SKC,0.00,0.0,WeatherDisplay:10.37,2013-08-15 02:17:00,
2013-08-14 21:22:00,82.1,77.5,29.87,ESE,121,12.0,12.0,86,0.00,CLR,SKC,0.00,0.0,WeatherDisplay:10.37,2013-08-15 02:22:00,
2013-08-14 21:27:00,82.1,77.5,29.88,SE,143,10.4,10.4,86,0.00,CLR,SKC,0.00,0.0,WeatherDisplay:10.37,2013-08-15 02:27:00,
2013-08-14 21:32:00,82.0,77.4,29.88,SE,128,12.7,12.7,86,0.00,CLR,SKC,0.00,0.0,WeatherDisplay:10.37,2013-08-15 02:32:00,
2013-08-14 21:37:00,82.0,77.4,29.88,SE,146,11.5,11.5,86,0.00,CLR,SKC,0.00,0.0,WeatherDisplay:10.37,2013-08-15 02:37:00,
2013-08-14 21:42:00,81.9,77.3,29.88,ESE,106,13.0,13.0,86,0.00,CLR,SKC,0.00,0.0,WeatherDisplay:10.37,2013-08-15 02:42:00,
2013-08-14 21:47:00,81.9,77.3,29.88,SE,133,11.0,11.0,86,0.00,CLR,SKC,0.00,0.0,WeatherDisplay:10.37,2013-08-15 02:47:00,
2013-08-14 21:52:00,82.0,77.4,29.88,SE,138,8.1,8.1,86,0.00,CLR,SKC,0.00,0.0,WeatherDisplay:10.37,2013-08-15 02:52:00,
2013-08-14 21:57:00,82.0,77.4,29.90,SE,140,10.0,10.0,86,0.00,CLR,SKC,0.00,0.0,WeatherDisplay:10.37,2013-08-15 02:57:00,
2013-08-14 22:02:00,82.0,77.0,29.90,ESE,120,10.4,10.4,85,0.00,CLR,SKC,0.00,0.0,WeatherDisplay:10.37,2013-08-15 03:02:00,
2013-08-14 22:07:00,82.0,77.0,29.90,ESE,121,11.5,11.5,85,0.00,CLR,SKC,0.00,0.0,WeatherDisplay:10.37,2013-08-15 03:07:00,
2013-08-14 22:12:00,82.0,77.4,29.90,SE,134,6.9,6.9,86,0.00,CLR,SKC,0.00,0.0,WeatherDisplay:10.37,2013-08-15 03:12:00,
2013-08-14 22:17:00,82.0,77.4,29.90,SE,139,11.5,11.5,86,0.00,CLR,SKC,0.00,0.0,WeatherDisplay:10.37,2013-08-15 03:17:00,
2013-08-14 22:22:00,82.0,77.4,29.90,SE,127,14.0,14.0,86,0.00,CLR,SKC,0.00,0.0,WeatherDisplay:10.37,2013-08-15 03:22:00,
2013-08-14 22:27:00,81.9,77.3,29.90,SSE,167,13.8,13.8,86,0.00,CLR,SKC,0.00,0.0,WeatherDisplay:10.37,2013-08-15 03:27:00,
2013-08-14 22:32:00,81.9,77.3,29.90,SSE,162,13.8,13.8,86,0.00,CLR,SKC,0.00,0.0,WeatherDisplay:10.37,2013-08-15 03:32:00,
2013-08-14 22:37:00,81.9,77.3,29.90,ESE,107,10.4,10.4,86,0.00,CLR,SKC,0.00,0.0,WeatherDisplay:10.37,2013-08-15 03:37:00,
2013-08-14 22:42:00,81.9,77.3,29.91,SE,146,10.4,10.4,86,0.00,CLR,SKC,0.00,0.0,WeatherDisplay:10.37,2013-08-15 03:42:00,
2013-08-14 22:47:00,81.9,77.3,29.91,SSE,159,5.8,5.8,86,0.00,CLR,SKC,0.00,0.0,WeatherDisplay:10.37,2013-08-15 03:47:00,
2013-08-14 22:52:00,81.8,77.2,29.91,SSE,153,10.4,10.4,86,0.00,CLR,SKC,0.00,0.0,WeatherDisplay:10.37,2013-08-15 03:52:00,
2013-08-14 22:57:00,81.8,77.2,29.91,East,101,10.4,10.4,86,0.00,CLR,SKC,0.00,0.0,WeatherDisplay:10.37,2013-08-15 03:57:00,
2013-08-14 23:01:00,81.8,76.8,29.91,SE,136,9.2,9.2,85,0.00,CLR,SKC,0.00,0.0,WeatherDisplay:10.37,2013-08-15 04:01:00,
2013-08-14 23:06:00,81.8,76.8,29.91,SSE,164,11.5,11.5,85,0.00,CLR,SKC,0.00,0.0,WeatherDisplay:10.37,2013-08-15 04:06:00,
2013-08-14 23:11:00,81.8,76.8,29.91,ESE,121,6.9,6.9,85,0.00,CLR,SKC,0.00,0.0,WeatherDisplay:10.37,2013-08-15 04:11:00,
2013-08-14 23:16:00,81.8,76.8,29.91,SSE,148,11.5,11.5,85,0.00,CLR,SKC,0.00,0.0,WeatherDisplay:10.37,2013-08-15 04:16:00,
2013-08-14 23:21:00,81.7,76.4,29.91,SE,139,10.4,10.4,84,0.00,CLR,SKC,0.00,0.0,WeatherDisplay:10.37,2013-08-15 04:21:00,
2013-08-14 23:26:00,81.7,76.4,29.92,ESE,115,11.5,11.5,84,0.00,CLR,SKC,0.00,0.0,WeatherDisplay:10.37,2013-08-15 04:26:00,
2013-08-14 23:31:00,81.8,76.5,29.92,SE,130,10.4,10.4,84,0.00,CLR,SKC,0.00,0.0,WeatherDisplay:10.37,2013-08-15 04:31:00,
2013-08-14 23:36:00,81.8,76.5,29.92,SE,127,11.5,11.5,84,0.00,CLR,SKC,0.00,0.0,WeatherDisplay:10.37,2013-08-15 04:36:00,
2013-08-14 23:41:00,81.8,76.5,29.91,SE,124,11.5,11.5,84,0.00,CLR,SKC,0.00,0.0,WeatherDisplay:10.37,2013-08-15 04:41:00,
2013-08-14 23:46:00,81.9,76.6,29.91,SSE,148,10.4,10.4,84,0.00,CLR,SKC,0.00,0.0,WeatherDisplay:10.37,2013-08-15 04:46:00,
2013-08-14 23:51:00,81.9,76.6,29.91,SE,128,10.4,10.4,84,0.00,CLR,SKC,0.00,0.0,WeatherDisplay:10.37,2013-08-15 04:51:00,
2013-08-14 23:56:00,81.9,76.6,29.92,SSW,192,10.4,10.4,84,0.00,CLR,SKC,0.00,0.0,WeatherDisplay:10.37,2013-08-15 04:56:00,